Time;durP1;ratioP1;P1;durP2;ratioP2;P2;SDS_P1;SDS_P2;PMS_P1;PMS_P2;Temp;Humidity;BMP_temperature;BMP_pressure;BME280_temperature;BME280_humidity;BME280_pressure;Samples;Min_cycle;Max_cycle;Signal;HPM_P1;HPM_P2
2022/01/19 00:00:43;;;;;;;20.42;15.80;;;5.80;99.90;;;;;;4949815;28;20035;-61
2022/01/19 00:03:10;;;;;;;21.15;17.55;;;5.80;99.90;;;;;;4949478;29;20400;-62
2022/01/19 00:05:36;;;;;;;23.25;17.50;;;5.70;99.90;;;;;;4949564;28;20058;-62
2022/01/19 00:08:02;;;;;;;21.98;16.67;;;5.70;99.90;;;;;;4950017;29;20039;-63
2022/01/19 00:10:28;;;;;;;22.15;18.33;;;6.00;99.90;;;;;;4952733;28;20035;-62
2022/01/19 00:12:56;;;;;;;19.13;16.45;;;5.80;99.90;;;;;;4950284;29;20086;-62
2022/01/19 00:15:22;;;;;;;20.33;16.48;;;5.90;99.90;;;;;;4949733;29;20024;-62
2022/01/19 00:17:48;;;;;;;20.88;15.98;;;5.90;99.90;;;;;;4951075;29;20031;-62
2022/01/19 00:20:14;;;;;;;19.88;15.60;;;5.90;99.90;;;;;;4949859;29;20130;-62
2022/01/19 00:22:40;;;;;;;19.95;16.17;;;5.80;99.90;;;;;;4951670;28;20060;-62
2022/01/19 00:25:07;;;;;;;21.27;16.98;;;6.00;99.90;;;;;;4951045;29;20031;-62
2022/01/19 00:27:33;;;;;;;20.95;16.63;;;5.90;99.90;;;;;;4940337;29;20473;-61
2022/01/19 00:29:59;;;;;;;22.17;17.60;;;5.70;99.90;;;;;;4942284;29;20098;-61
2022/01/19 00:32:26;;;;;;;23.88;17.73;;;5.60;99.90;;;;;;4949591;29;20063;-62
2022/01/19 00:34:52;;;;;;;22.20;17.77;;;5.70;99.90;;;;;;4950073;28;20028;-62
2022/01/19 00:37:18;;;;;;;23.17;18.85;;;5.70;99.90;;;;;;4952286;29;20106;-62
2022/01/19 00:39:44;;;;;;;23.00;19.33;;;5.60;99.90;;;;;;4949669;29;20050;-62
2022/01/19 00:42:09;;;;;;;27.52;21.05;;;5.50;99.90;;;;;;4949266;28;20500;-62
2022/01/19 00:44:35;;;;;;;28.92;21.58;;;5.40;99.90;;;;;;4948931;28;20062;-62
2022/01/19 00:47:01;;;;;;;26.45;20.27;;;5.50;99.90;;;;;;4949496;29;20027;-62
2022/01/19 00:49:26;;;;;;;25.20;19.65;;;5.70;99.90;;;;;;4953253;28;20420;-61
2022/01/19 00:51:52;;;;;;;25.38;18.52;;;5.70;99.90;;;;;;4950701;29;20067;-61
2022/01/19 00:54:18;;;;;;;24.00;18.10;;;5.70;99.90;;;;;;4949269;28;20412;-61
2022/01/19 00:56:43;;;;;;;24.65;20.10;;;5.70;99.90;;;;;;4950695;29;20031;-62
2022/01/19 00:59:09;;;;;;;26.38;19.77;;;5.60;99.90;;;;;;4949413;28;20100;-61
2022/01/19 01:01:35;;;;;;;25.70;19.85;;;5.50;99.90;;;;;;4951877;29;20027;-61
2022/01/19 01:04:01;;;;;;;24.10;19.35;;;5.50;99.90;;;;;;4951803;29;20024;-62
2022/01/19 01:06:26;;;;;;;23.85;19.13;;;5.60;99.90;;;;;;4950348;28;20688;-61
2022/01/19 01:08:52;;;;;;;26.98;19.40;;;5.70;99.90;;;;;;4952362;29;20030;-62
2022/01/19 01:11:20;;;;;;;27.90;20.92;;;5.60;99.90;;;;;;4952586;29;20143;-62
2022/01/19 01:16:37;;;;;;;24.83;20.10;;;5.50;99.90;;;;;;4956230;29;20034;-61
2022/01/19 01:19:07;;;;;;;24.70;20.00;;;5.60;99.90;;;;;;4955119;29;20489;-61
2022/01/19 01:21:33;;;;;;;27.33;20.50;;;5.60;99.90;;;;;;4951849;29;20477;-61
2022/01/19 01:23:59;;;;;;;26.30;19.92;;;5.60;99.90;;;;;;4951994;29;20457;-62
2022/01/19 01:26:26;;;;;;;24.45;19.80;;;5.60;99.90;;;;;;4952412;29;20039;-61
2022/01/19 01:28:51;;;;;;;24.08;19.77;;;5.90;99.90;;;;;;4953626;28;20027;-62
2022/01/19 01:31:18;;;;;;;25.42;20.17;;;5.80;99.90;;;;;;4956392;29;20452;-62
2022/01/19 01:33:43;;;;;;;26.85;19.90;;;5.70;99.90;;;;;;4951937;29;20035;-61
2022/01/19 01:36:09;;;;;;;24.63;19.48;;;5.70;99.90;;;;;;4947547;28;20089;-61
2022/01/19 01:38:37;;;;;;;24.25;19.63;;;5.60;99.90;;;;;;4952007;29;20031;-62
2022/01/19 01:41:04;;;;;;;23.45;18.85;;;5.60;99.90;;;;;;4951826;29;20082;-62
2022/01/19 01:43:30;;;;;;;24.92;19.25;;;5.80;99.90;;;;;;4955419;28;20050;-62
2022/01/19 01:46:02;;;;;;;24.40;19.40;;;5.70;99.90;;;;;;4954070;29;20043;-62
2022/01/19 01:48:27;;;;;;;25.70;20.58;;;5.70;99.90;;;;;;4951542;29;20042;-62
2022/01/19 01:53:38;;;;;;;21.85;17.77;;;5.80;99.90;;;;;;4952328;29;20030;-64
2022/01/19 01:56:05;;;;;;;22.42;17.52;;;5.80;99.90;;;;;;4952122;28;20036;-61
2022/01/19 01:58:35;;;;;;;23.23;18.63;;;6.00;99.90;;;;;;4954854;29;20029;-62
2022/01/19 02:01:02;;;;;;;22.70;18.77;;;5.80;99.90;;;;;;4953405;29;20041;-62
2022/01/19 02:03:28;;;;;;;24.55;20.02;;;5.70;99.90;;;;;;4951212;29;20066;-62
2022/01/19 02:06:20;;;;;;;23.75;19.65;;;5.60;99.90;;;;;;4951534;28;20027;-61
2022/01/19 02:08:54;;;;;;;23.95;20.50;;;5.50;99.90;;;;;;4952879;28;20019;-61
2022/01/19 02:23:38;;;;;;;22.17;18.67;;;5.70;99.90;;;;;;4937286;29;20118;-61
2022/01/19 02:26:10;;;;;;;24.15;20.27;;;5.80;99.90;;;;;;4936844;29;25412;-62
2022/01/19 02:36:48;;;;;;;23.40;19.52;;;5.60;99.90;;;;;;4951211;29;20158;-62
2022/01/19 02:41:59;;;;;;;22.35;19.27;;;5.70;99.90;;;;;;4950830;29;20066;-61
2022/01/19 02:46:38;;;;;;;23.55;19.50;;;5.60;99.90;;;;;;4950650;29;20464;-62
2022/01/19 02:49:56;;;;;;;22.40;18.92;;;5.70;99.90;;;;;;4951582;29;20048;-60
2022/01/19 02:52:23;;;;;;;24.55;19.38;;;5.70;99.90;;;;;;4953916;29;20035;-61
2022/01/19 02:54:50;;;;;;;23.05;18.42;;;5.70;99.90;;;;;;4952470;29;20105;-62
2022/01/19 02:57:16;;;;;;;21.02;17.48;;;5.80;99.90;;;;;;4950551;29;20039;-61
2022/01/19 03:10:34;;;;;;;21.08;16.80;;;5.70;99.90;;;;;;4953453;29;20050;-61
2022/01/19 03:13:00;;;;;;;20.60;17.20;;;5.70;99.90;;;;;;4951323;29;20481;-61
2022/01/19 03:15:27;;;;;;;20.80;16.65;;;5.70;99.90;;;;;;4949231;29;20046;-61
2022/01/19 03:17:57;;;;;;;22.08;16.77;;;5.70;99.90;;;;;;4949488;29;20034;-61
2022/01/19 03:20:23;;;;;;;18.13;15.85;;;5.60;99.90;;;;;;4949946;28;20114;-61
2022/01/19 03:23:00;;;;;;;19.92;16.58;;;5.70;99.90;;;;;;4951907;28;20024;-61
2022/01/19 03:25:26;;;;;;;19.92;16.55;;;5.70;99.90;;;;;;4954123;29;20035;-61
2022/01/19 03:27:51;;;;;;;22.63;19.83;;;5.60;99.90;;;;;;4951312;29;20039;-61
2022/01/19 03:30:19;;;;;;;21.40;17.55;;;5.60;99.90;;;;;;4949426;28;20062;-61
2022/01/19 03:32:45;;;;;;;19.08;16.92;;;5.50;99.90;;;;;;4951169;29;20035;-61
2022/01/19 03:35:12;;;;;;;19.17;16.70;;;5.50;99.90;;;;;;4950366;29;20107;-61
2022/01/19 03:37:39;;;;;;;19.27;16.85;;;5.50;99.90;;;;;;4952352;28;20361;-61
2022/01/19 03:40:07;;;;;;;18.77;16.65;;;5.60;99.90;;;;;;4951614;28;20031;-62
2022/01/19 03:42:33;;;;;;;21.38;17.50;;;5.60;99.90;;;;;;4949719;28;20464;-61
2022/01/19 03:44:59;;;;;;;20.80;17.23;;;5.50;99.90;;;;;;4950278;29;20476;-61
2022/01/19 03:47:28;;;;;;;21.40;16.67;;;5.60;99.90;;;;;;4949612;29;20023;-61
2022/01/19 03:49:54;;;;;;;21.63;17.85;;;5.70;99.90;;;;;;4950853;28;20066;-62
2022/01/19 03:52:20;;;;;;;20.08;17.00;;;5.60;99.90;;;;;;4953075;29;20079;-61
2022/01/19 03:54:46;;;;;;;20.95;17.13;;;5.70;99.90;;;;;;4949730;29;20032;-61
2022/01/19 03:57:12;;;;;;;20.95;16.02;;;5.70;99.90;;;;;;4949542;29;20097;-62
2022/01/19 03:59:39;;;;;;;19.50;16.88;;;5.70;99.90;;;;;;4949523;28;20472;-60
2022/01/19 04:02:05;;;;;;;19.95;16.70;;;5.80;99.90;;;;;;4949336;29;20525;-61
2022/01/19 04:09:34;;;;;;;21.35;18.38;;;5.70;99.90;;;;;;4949843;28;20031;-61
2022/01/19 04:12:00;;;;;;;23.45;17.63;;;5.70;99.90;;;;;;4950896;29;20415;-61
2022/01/19 04:14:26;;;;;;;20.67;17.95;;;5.50;99.90;;;;;;4949661;29;20034;-61
2022/01/19 04:16:59;;;;;;;23.80;18.38;;;5.60;99.90;;;;;;4950826;28;20030;-61
2022/01/19 04:19:40;;;;;;;22.20;16.83;;;5.70;99.90;;;;;;4953292;29;20059;-61
2022/01/19 04:22:08;;;;;;;24.15;18.77;;;5.70;99.90;;;;;;4952771;29;20493;-61
2022/01/19 04:24:35;;;;;;;19.25;17.15;;;5.70;99.90;;;;;;4948082;28;20574;-61
2022/01/19 04:29:52;;;;;;;22.35;18.13;;;5.80;99.90;;;;;;4949118;28;20027;-61
2022/01/19 04:32:23;;;;;;;22.27;18.35;;;5.60;99.90;;;;;;4949451;29;20047;-61
2022/01/19 04:34:50;;;;;;;22.67;18.60;;;5.40;99.90;;;;;;4951067;28;20195;-61
2022/01/19 05:06:47;;;;;;;24.52;19.45;;;5.60;99.90;;;;;;4950723;29;20089;-60
2022/01/19 05:09:51;;;;;;;24.73;19.17;;;5.50;99.90;;;;;;4950183;28;20032;-61
2022/01/19 05:14:52;;;;;;;27.48;22.50;;;5.40;99.90;;;;;;4949977;29;20424;-61
2022/01/19 05:17:18;;;;;;;24.38;19.75;;;5.40;99.90;;;;;;4950605;29;20157;-61
2022/01/19 05:19:44;;;;;;;21.42;18.10;;;5.40;99.90;;;;;;4952409;29;20035;-61
2022/01/19 05:22:09;;;;;;;22.95;19.90;;;5.60;99.90;;;;;;4951593;29;20039;-61
2022/01/19 05:24:35;;;;;;;27.23;21.52;;;5.50;99.90;;;;;;4951809;29;20059;-62
2022/01/19 05:27:01;;;;;;;25.02;20.00;;;5.40;99.90;;;;;;4950073;29;20496;-63
2022/01/19 05:29:26;;;;;;;22.55;20.15;;;5.50;99.90;;;;;;4951665;28;20118;-63
2022/01/19 05:31:52;;;;;;;23.88;20.02;;;5.50;99.90;;;;;;4951452;29;20138;-61
2022/01/19 05:34:18;;;;;;;21.27;18.15;;;5.50;99.90;;;;;;4952641;29;20445;-62
2022/01/19 05:36:43;;;;;;;23.10;19.20;;;5.50;99.90;;;;;;4949856;28;20062;-61
2022/01/19 05:39:09;;;;;;;23.48;19.92;;;5.50;99.90;;;;;;4949894;28;20074;-61
2022/01/19 05:41:35;;;;;;;23.20;20.20;;;5.60;99.90;;;;;;4950761;29;20108;-61
2022/01/19 05:44:00;;;;;;;23.58;19.52;;;5.50;99.90;;;;;;4951615;29;20039;-61
2022/01/19 05:46:26;;;;;;;26.42;20.42;;;5.50;99.90;;;;;;4955988;29;20481;-61
2022/01/19 05:48:52;;;;;;;24.65;21.25;;;5.80;99.90;;;;;;4951744;28;20110;-61
2022/01/19 05:51:17;;;;;;;25.50;20.70;;;5.60;99.90;;;;;;4951391;28;20073;-61
2022/01/19 05:53:43;;;;;;;28.98;23.75;;;5.60;99.90;;;;;;4951325;29;20461;-61
2022/01/19 05:56:09;;;;;;;80.70;59.97;;;5.50;99.90;;;;;;4951605;29;20028;-61
2022/01/19 05:58:35;;;;;;;71.45;53.67;;;5.50;99.90;;;;;;4954605;29;20118;-61
2022/01/19 06:01:01;;;;;;;34.47;26.65;;;5.40;99.90;;;;;;4952848;29;20027;-61
2022/01/19 06:03:26;;;;;;;37.17;29.73;;;5.50;99.90;;;;;;4952974;29;20055;-61
2022/01/19 06:05:52;;;;;;;46.47;36.22;;;5.60;99.90;;;;;;4951210;29;20077;-61
2022/01/19 06:08:39;;;;;;;28.10;21.15;;;5.60;99.90;;;;;;4967957;28;20026;-61
2022/01/19 06:11:04;;;;;;;27.80;21.73;;;5.70;99.90;;;;;;4936021;29;20051;-60
2022/01/19 06:13:30;;;;;;;25.52;20.88;;;5.70;99.90;;;;;;4955024;28;20067;-61
2022/01/19 06:15:55;;;;;;;27.15;23.77;;;5.60;99.90;;;;;;4950946;29;20477;-60
2022/01/19 06:18:22;;;;;;;25.30;20.90;;;5.70;99.90;;;;;;4951212;29;20037;-61
2022/01/19 06:20:48;;;;;;;23.67;19.58;;;5.60;99.90;;;;;;4951395;29;20043;-61
2022/01/19 06:23:14;;;;;;;25.15;20.25;;;5.70;99.90;;;;;;4951261;29;20024;-61
2022/01/19 06:25:39;;;;;;;21.27;18.63;;;5.90;99.90;;;;;;4953271;29;20027;-61
2022/01/19 06:28:05;;;;;;;21.88;18.75;;;5.90;99.90;;;;;;4953030;29;20560;-61
2022/01/19 06:30:31;;;;;;;20.17;18.08;;;5.90;99.90;;;;;;4950963;29;20086;-62
2022/01/19 06:32:57;;;;;;;21.80;18.17;;;5.80;99.90;;;;;;4950826;29;20035;-61
2022/01/19 06:35:23;;;;;;;23.23;19.95;;;5.90;99.90;;;;;;4951125;29;20504;-61
2022/01/19 06:37:49;;;;;;;22.45;18.27;;;5.90;99.90;;;;;;4952535;29;20027;-61
2022/01/19 06:40:17;;;;;;;24.08;18.73;;;5.90;99.90;;;;;;4952981;29;20027;-61
2022/01/19 06:42:44;;;;;;;23.30;19.42;;;5.80;99.90;;;;;;4952386;28;20030;-61
2022/01/19 06:45:11;;;;;;;22.80;19.10;;;5.90;99.90;;;;;;4950707;29;20113;-61
2022/01/19 06:47:38;;;;;;;25.00;21.25;;;5.90;99.90;;;;;;4952107;28;20106;-61
2022/01/19 06:50:06;;;;;;;26.02;21.77;;;5.80;99.90;;;;;;4950554;29;20074;-61
2022/01/19 06:52:32;;;;;;;24.50;19.77;;;5.90;99.90;;;;;;4954341;28;20122;-61
2022/01/19 06:54:57;;;;;;;27.38;21.70;;;6.00;99.90;;;;;;4952340;29;20110;-61
2022/01/19 06:57:23;;;;;;;27.50;22.80;;;5.80;99.90;;;;;;4950399;29;20528;-61
2022/01/19 06:59:51;;;;;;;28.33;21.85;;;5.70;99.90;;;;;;4950507;29;20031;-60
2022/01/19 07:02:18;;;;;;;24.98;21.10;;;5.80;99.90;;;;;;4950521;28;20055;-60
2022/01/19 07:04:49;;;;;;;24.27;20.45;;;5.80;99.90;;;;;;4952255;28;20027;-61
2022/01/19 07:07:16;;;;;;;27.83;22.13;;;5.80;99.90;;;;;;4952512;29;20041;-59
2022/01/19 07:09:42;;;;;;;25.20;20.70;;;5.80;99.90;;;;;;4950126;28;20031;-60
2022/01/19 07:12:08;;;;;;;27.23;21.95;;;5.80;99.90;;;;;;4950140;28;20488;-60
2022/01/19 07:14:34;;;;;;;27.40;22.42;;;5.70;99.90;;;;;;4950436;28;20023;-61
2022/01/19 07:17:00;;;;;;;29.77;24.27;;;5.80;99.90;;;;;;4950853;29;20031;-65
2022/01/19 07:19:25;;;;;;;29.20;23.58;;;5.80;99.90;;;;;;4953888;29;20050;-61
2022/01/19 07:21:51;;;;;;;27.98;22.23;;;5.90;99.90;;;;;;4951538;29;20045;-60
2022/01/19 07:24:17;;;;;;;27.73;22.27;;;5.80;99.90;;;;;;4949828;29;20448;-60
2022/01/19 07:26:43;;;;;;;31.88;25.52;;;5.70;99.90;;;;;;4951914;29;20395;-60
2022/01/19 07:29:09;;;;;;;31.73;24.48;;;5.70;99.90;;;;;;4964809;28;20038;-60
2022/01/19 07:31:35;;;;;;;30.77;23.60;;;5.70;99.90;;;;;;4952933;28;20067;-60
2022/01/19 07:34:00;;;;;;;30.58;23.73;;;5.70;99.90;;;;;;4951005;29;20054;-60
2022/01/19 07:36:26;;;;;;;28.63;23.63;;;5.60;99.90;;;;;;4949866;29;20028;-61
2022/01/19 07:38:52;;;;;;;29.88;23.77;;;5.50;99.90;;;;;;4949401;29;20038;-61
2022/01/19 07:41:17;;;;;;;31.88;26.65;;;5.60;99.90;;;;;;4949958;29;20032;-61
2022/01/19 07:43:43;;;;;;;28.83;23.98;;;5.70;99.90;;;;;;4952078;29;20439;-61
2022/01/19 07:46:09;;;;;;;28.98;23.17;;;5.80;99.90;;;;;;4951568;28;20063;-62
2022/01/19 07:48:35;;;;;;;27.95;22.25;;;5.70;99.90;;;;;;4940691;29;20066;-61
2022/01/19 07:51:01;;;;;;;31.15;23.67;;;5.60;99.90;;;;;;4942631;29;20035;-62
2022/01/19 07:53:26;;;;;;;30.05;23.65;;;5.60;99.90;;;;;;4949326;28;20425;-62
2022/01/19 07:55:53;;;;;;;28.35;22.20;;;5.60;99.90;;;;;;4951104;29;20030;-61
2022/01/19 07:58:19;;;;;;;26.85;21.75;;;5.70;99.90;;;;;;4952570;29;20028;-61
2022/01/19 08:00:45;;;;;;;32.15;23.42;;;5.70;99.90;;;;;;4951137;29;20031;-62
2022/01/19 08:03:11;;;;;;;28.55;24.02;;;5.60;99.90;;;;;;4949743;29;20461;-61
2022/01/19 08:05:37;;;;;;;32.70;23.80;;;5.60;99.90;;;;;;4950831;29;20062;-61
2022/01/19 08:08:03;;;;;;;32.28;23.77;;;5.60;99.90;;;;;;4949830;29;20441;-61
2022/01/19 08:10:30;;;;;;;33.80;24.48;;;5.70;99.90;;;;;;4953608;28;20039;-61
2022/01/19 08:12:59;;;;;;;29.88;23.05;;;5.60;99.90;;;;;;4950096;29;20031;-61
2022/01/19 08:15:25;;;;;;;33.13;24.45;;;5.70;99.90;;;;;;4950890;28;20039;-61
2022/01/19 08:17:51;;;;;;;32.95;24.38;;;5.60;99.90;;;;;;4952478;29;20028;-61
2022/01/19 08:20:18;;;;;;;29.67;24.45;;;5.60;99.90;;;;;;4953480;28;20028;-61
2022/01/19 08:22:44;;;;;;;32.67;25.30;;;5.60;99.90;;;;;;4955512;29;20630;-61
2022/01/19 08:25:10;;;;;;;33.97;25.75;;;5.70;99.90;;;;;;4955003;29;20488;-61
2022/01/19 08:27:36;;;;;;;32.38;23.80;;;5.70;99.90;;;;;;4953084;29;20027;-61
2022/01/19 08:30:03;;;;;;;31.30;23.92;;;5.80;99.90;;;;;;4953630;29;20027;-62
2022/01/19 08:32:29;;;;;;;33.65;25.45;;;5.80;99.90;;;;;;4952727;29;20059;-62
2022/01/19 08:34:55;;;;;;;32.47;24.88;;;5.70;99.90;;;;;;4953840;28;20445;-62
2022/01/19 08:37:21;;;;;;;28.77;23.27;;;5.80;99.90;;;;;;4956098;29;20039;-62
2022/01/19 08:39:46;;;;;;;32.20;24.15;;;6.00;99.90;;;;;;4954399;29;20019;-61
2022/01/19 08:42:14;;;;;;;28.10;21.65;;;5.90;99.90;;;;;;4953126;29;20031;-61
2022/01/19 08:44:40;;;;;;;29.48;21.23;;;6.00;99.90;;;;;;4954184;28;20051;-61
2022/01/19 08:47:06;;;;;;;27.88;20.88;;;6.10;99.90;;;;;;4951956;29;20038;-61
2022/01/19 08:49:34;;;;;;;27.30;21.17;;;6.10;99.90;;;;;;4955947;28;20038;-61
2022/01/19 08:52:01;;;;;;;29.80;22.90;;;6.10;99.90;;;;;;4953565;29;20408;-60
2022/01/19 08:54:26;;;;;;;27.42;21.05;;;5.90;99.90;;;;;;4953118;29;20024;-60
2022/01/19 08:56:52;;;;;;;26.10;21.33;;;6.00;99.90;;;;;;4952679;28;20122;-61
2022/01/19 08:59:18;;;;;;;27.63;20.98;;;6.00;99.90;;;;;;4952608;29;20034;-61
2022/01/19 09:01:44;;;;;;;27.83;21.25;;;5.90;99.90;;;;;;4955159;29;20135;-61
2022/01/19 09:04:09;;;;;;;29.63;21.83;;;5.90;99.90;;;;;;4954041;29;20028;-62
2022/01/19 09:06:35;;;;;;;29.58;21.33;;;6.00;99.90;;;;;;4952167;28;20122;-60
2022/01/19 09:09:01;;;;;;;25.55;20.67;;;5.90;99.90;;;;;;4952563;29;20033;-60
2022/01/19 09:11:26;;;;;;;27.65;21.08;;;6.00;99.90;;;;;;4952249;28;20119;-61
2022/01/19 09:13:52;;;;;;;24.60;20.67;;;6.00;99.90;;;;;;4953448;28;20082;-60
2022/01/19 09:16:18;;;;;;;25.33;20.55;;;6.10;99.90;;;;;;4955730;29;20031;-60
2022/01/19 09:18:44;;;;;;;26.08;18.98;;;6.20;99.90;;;;;;4968621;28;20031;-61
2022/01/19 09:21:10;;;;;;;28.45;21.00;;;6.20;99.90;;;;;;4951717;29;20031;-60
2022/01/19 09:23:37;;;;;;;26.85;21.52;;;6.10;99.90;;;;;;4953640;28;20020;-61
2022/01/19 09:26:03;;;;;;;25.85;19.70;;;6.00;99.90;;;;;;4951492;29;20027;-61
2022/01/19 09:28:29;;;;;;;25.52;20.33;;;6.20;99.90;;;;;;4955552;28;20027;-61
2022/01/19 09:31:01;;;;;;;28.48;20.60;;;6.00;99.90;;;;;;4952048;29;20023;-61
2022/01/19 09:33:30;;;;;;;32.08;22.00;;;6.10;99.90;;;;;;4951919;29;20043;-61
2022/01/19 09:38:28;;;;;;;32.60;22.17;;;6.10;99.90;;;;;;4952124;28;20028;-61
2022/01/19 09:40:54;;;;;;;29.15;24.63;;;6.00;99.90;;;;;;4953051;28;20034;-61
2022/01/19 09:43:22;;;;;;;25.75;22.15;;;6.00;99.90;;;;;;4954757;29;20062;-62
2022/01/19 09:45:50;;;;;;;38.92;28.08;;;6.00;99.90;;;;;;4951794;28;20118;-61
2022/01/19 09:48:16;;;;;;;39.65;28.35;;;6.20;99.90;;;;;;4951464;29;20481;-61
2022/01/19 09:50:41;;;;;;;42.40;30.35;;;6.20;99.90;;;;;;4951747;29;20078;-61
2022/01/19 09:53:08;;;;;;;31.30;26.15;;;6.20;99.90;;;;;;4951979;29;20043;-61
2022/01/19 09:55:35;;;;;;;29.80;23.92;;;6.20;99.90;;;;;;4954703;28;20020;-60
2022/01/19 09:58:01;;;;;;;32.15;25.92;;;6.20;99.90;;;;;;4954148;28;20035;-61
2022/01/19 10:00:27;;;;;;;45.47;29.13;;;6.20;99.90;;;;;;4951776;28;20031;-62
2022/01/19 10:03:11;;;;;;;31.58;25.88;;;6.40;99.90;;;;;;4952903;28;20038;-61
2022/01/19 10:05:40;;;;;;;;;;;6.40;99.90;;;;;;4951792;29;20401;-62
2022/01/19 10:08:06;;;;;;;29.77;23.88;;;6.40;99.90;;;;;;4951781;28;19919;-62
2022/01/19 10:10:32;;;;;;;30.73;24.20;;;6.40;99.90;;;;;;4955096;29;20163;-61
2022/01/19 10:18:39;;;;;;;30.42;24.33;;;6.40;99.90;;;;;;4923769;29;20079;-62
2022/01/19 10:21:13;;;;;;;30.52;23.63;;;6.40;99.90;;;;;;4921873;29;20056;-61
2022/01/19 10:23:41;;;;;;;31.40;23.75;;;6.40;99.90;;;;;;4921718;29;20572;-62
2022/01/19 10:26:13;;;;;;;28.88;24.33;;;6.50;99.90;;;;;;4918309;29;20055;-61
2022/01/19 10:28:57;;;;;;;35.10;28.48;;;6.60;99.90;;;;;;4917258;29;20036;-62
2022/01/19 10:31:23;;;;;;;38.90;32.70;;;6.60;99.90;;;;;;4933382;29;20127;-60
2022/01/19 10:34:17;;;;;;;32.92;26.25;;;6.70;99.90;;;;;;4931993;29;20036;-61
2022/01/19 10:36:55;;;;;;;24.95;21.25;;;6.90;99.90;;;;;;4923122;29;20454;-60
2022/01/19 10:39:23;;;;;;;22.73;19.40;;;7.00;99.90;;;;;;4927556;29;20039;-61
2022/01/19 10:42:11;;;;;;;21.60;17.88;;;7.10;99.90;;;;;;4930104;29;20444;-62
2022/01/19 10:44:40;;;;;;;21.27;17.83;;;7.20;99.90;;;;;;4921174;29;20090;-60
2022/01/19 10:47:08;;;;;;;21.48;16.92;;;7.30;99.90;;;;;;4917533;29;20051;-61
2022/01/19 10:49:54;;;;;;;21.65;17.40;;;7.10;99.90;;;;;;4917032;29;20032;-61
2022/01/19 10:52:32;;;;;;;23.00;19.45;;;7.10;99.90;;;;;;4919458;29;20036;-61
2022/01/19 10:54:59;;;;;;;20.77;17.58;;;7.00;99.90;;;;;;4931212;29;20607;-61
2022/01/19 10:57:27;;;;;;;21.65;17.30;;;7.20;99.90;;;;;;4946739;29;20030;-62
2022/01/19 11:00:08;;;;;;;20.88;16.85;;;7.20;99.90;;;;;;4950435;29;20050;-61
2022/01/19 11:02:37;;;;;;;18.15;16.13;;;7.50;99.90;;;;;;4949433;29;20448;-61
2022/01/19 11:05:03;;;;;;;22.02;16.77;;;7.60;99.90;;;;;;4935321;29;20063;-62
2022/01/19 11:07:29;;;;;;;21.02;17.02;;;7.60;99.90;;;;;;4954485;28;20054;-61
2022/01/19 11:10:07;;;;;;;20.83;16.38;;;7.60;99.90;;;;;;4949904;29;20473;-61
2022/01/19 11:12:39;;;;;;;19.23;15.45;;;7.70;99.90;;;;;;4949373;28;20039;-61
2022/01/19 11:15:07;;;;;;;18.08;15.85;;;7.70;99.90;;;;;;4950979;29;20078;-61
2022/01/19 11:17:33;;;;;;;18.23;16.10;;;7.80;99.90;;;;;;4949974;28;20031;-61
2022/01/19 11:20:06;;;;;;;20.85;15.25;;;8.10;99.90;;;;;;4935950;29;20032;-61
2022/01/19 11:22:50;;;;;;;18.13;14.65;;;8.40;99.90;;;;;;4950388;29;20027;-61
2022/01/19 11:25:54;;;;;;;20.63;15.05;;;8.80;99.90;;;;;;4952479;29;20384;-61
2022/01/19 11:28:45;;;;;;;15.23;12.20;;;9.40;99.90;;;;;;4880708;29;20466;-61
2022/01/19 11:31:19;;;;;;;15.38;12.15;;;9.80;99.90;;;;;;4890002;29;20033;-61
2022/01/19 11:33:51;;;;;;;13.05;11.68;;;9.80;99.90;;;;;;4887997;29;20123;-61
2022/01/19 11:36:24;;;;;;;13.82;11.90;;;9.70;99.90;;;;;;4884868;29;20040;-61
2022/01/19 11:39:11;;;;;;;15.38;12.23;;;9.60;99.90;;;;;;4880316;29;20033;-62
2022/01/19 11:41:54;;;;;;;15.15;12.40;;;9.70;99.90;;;;;;4879156;29;20113;-61
2022/01/19 11:44:28;;;;;;;16.45;11.98;;;9.60;99.90;;;;;;4877459;29;20109;-60
2022/01/19 11:46:56;;;;;;;14.20;12.20;;;9.60;99.90;;;;;;4876022;29;20391;-59
2022/01/19 11:49:51;;;;;;;14.88;12.68;;;9.50;99.90;;;;;;4879831;29;20454;-59
2022/01/19 11:52:19;;;;;;;13.55;11.90;;;9.60;99.90;;;;;;4888964;29;20132;-60
2022/01/19 11:54:46;;;;;;;12.13;10.70;;;9.80;99.90;;;;;;4887494;29;20028;-60
2022/01/19 11:57:18;;;;;;;14.73;11.23;;;9.70;99.90;;;;;;4885555;29;20025;-61
2022/01/19 11:59:46;;;;;;;13.32;11.30;;;9.80;99.90;;;;;;4879374;29;20043;-61
2022/01/19 12:02:21;;;;;;;13.93;11.30;;;9.90;99.90;;;;;;4904027;29;20040;-60
2022/01/19 12:05:10;;;;;;;12.18;10.88;;;10.10;99.90;;;;;;4951748;28;20411;-60
2022/01/19 12:07:49;;;;;;;12.40;9.85;;;10.10;99.90;;;;;;4952331;28;20037;-61
2022/01/19 12:10:44;;;;;;;11.07;9.63;;;10.00;99.90;;;;;;4951694;29;20036;-61
2022/01/19 12:16:12;;;;;;;13.02;10.90;;;9.80;99.90;;;;;;4952464;29;20070;-61
2022/01/19 12:18:49;;;;;;;14.60;11.27;;;9.60;99.90;;;;;;4947522;28;20035;-61
2022/01/19 12:21:45;;;;;;;12.75;11.23;;;9.70;99.90;;;;;;4949249;29;20046;-61
2022/01/19 12:24:22;;;;;;;12.38;10.73;;;9.70;99.90;;;;;;4943480;29;20042;-60
2022/01/19 12:27:06;;;;;;;14.40;11.50;;;9.50;99.90;;;;;;4947990;28;20090;-61
2022/01/19 12:29:37;;;;;;;14.05;11.68;;;9.60;99.90;;;;;;4949019;28;20024;-60
2022/01/19 12:32:06;;;;;;;12.80;11.05;;;9.60;99.90;;;;;;4935849;29;20476;-60
2022/01/19 12:34:43;;;;;;;12.55;11.13;;;9.40;99.90;;;;;;4952941;29;20023;-60
2022/01/19 12:37:10;;;;;;;12.10;10.80;;;9.90;99.90;;;;;;4952747;29;20035;-60
2022/01/19 12:39:44;;;;;;;16.02;11.65;;;10.70;99.90;;;;;;4950617;29;20030;-61
2022/01/19 12:42:17;;;;;;;;;;;11.30;99.90;;;;;;4949160;28;20070;-62
2022/01/19 12:44:43;;;;;;;11.18;9.77;;;11.60;99.90;;;;;;4948968;28;19998;-62
2022/01/19 12:50:18;;;;;;;12.43;9.40;;;11.80;99.90;;;;;;4950287;29;20136;-61
2022/01/19 12:52:56;;;;;;;13.82;9.50;;;11.60;99.90;;;;;;4951486;29;20047;-62
2022/01/19 12:55:33;;;;;;;10.57;8.05;;;11.90;99.90;;;;;;4952422;29;20046;-61
2022/01/19 12:58:00;;;;;;;10.23;8.18;;;12.00;99.90;;;;;;4951148;29;20038;-61
2022/01/19 13:00:31;;;;;;;11.60;8.85;;;12.00;99.90;;;;;;4949147;28;20026;-61
2022/01/19 13:02:58;;;;;;;9.70;7.55;;;12.10;99.90;;;;;;4954693;28;20107;-63
2022/01/19 13:05:28;;;;;;;12.32;10.93;;;11.20;99.90;;;;;;4952624;28;20030;-61
2022/01/19 13:07:59;;;;;;;18.10;12.80;;;10.80;99.90;;;;;;4953794;28;20102;-61
2022/01/19 13:10:47;;;;;;;75.18;43.78;;;11.40;99.90;;;;;;4955656;28;20055;-61
2022/01/19 13:13:25;;;;;;;214.43;113.05;;;11.60;99.90;;;;;;4954256;29;20050;-61
2022/01/19 13:15:55;;;;;;;18.65;12.48;;;11.60;99.90;;;;;;4952758;28;20059;-61
2022/01/19 13:18:42;;;;;;;11.98;8.30;;;11.70;99.90;;;;;;4953816;28;20475;-61
2022/01/19 13:21:11;;;;;;;10.38;7.72;;;11.80;99.90;;;;;;4952133;28;20477;-61
2022/01/19 13:24:16;;;;;;;11.27;8.40;;;11.50;99.90;;;;;;4952076;28;20027;-61
2022/01/19 13:27:04;;;;;;;9.20;7.60;;;11.10;99.90;;;;;;4940286;28;20404;-61
2022/01/19 13:29:42;;;;;;;11.25;8.95;;;11.20;99.90;;;;;;4952341;28;20405;-62
2022/01/19 13:32:19;;;;;;;9.73;7.97;;;11.20;99.90;;;;;;4937772;29;20032;-61
2022/01/19 13:34:48;;;;;;;9.52;7.40;;;11.20;99.90;;;;;;4954208;28;20035;-61
2022/01/19 13:37:14;;;;;;;10.63;8.57;;;11.20;99.90;;;;;;4953860;29;20123;-61
2022/01/19 13:39:39;;;;;;;11.95;8.73;;;11.20;99.90;;;;;;4951852;28;20103;-61
2022/01/19 13:42:05;;;;;;;12.55;10.68;;;11.30;99.90;;;;;;4951913;29;20493;-61
2022/01/19 13:44:38;;;;;;;12.38;7.47;;;11.20;99.90;;;;;;4951543;29;20508;-61
2022/01/19 13:47:05;;;;;;;23.02;16.75;;;11.10;99.90;;;;;;4936806;29;20518;-62
2022/01/19 13:49:31;;;;;;;11.50;7.70;;;11.20;99.90;;;;;;4955734;28;20148;-61
2022/01/19 13:51:57;;;;;;;11.95;7.32;;;11.20;99.90;;;;;;4963428;28;20143;-61
2022/01/19 13:54:24;;;;;;;9.82;7.13;;;11.20;99.90;;;;;;4951670;28;20480;-62
2022/01/19 13:56:59;;;;;;;10.68;7.72;;;11.10;99.90;;;;;;4953115;29;20106;-62
2022/01/19 13:59:25;;;;;;;9.38;7.30;;;11.10;99.90;;;;;;4951676;28;20110;-62
2022/01/19 14:01:57;;;;;;;13.50;8.55;;;11.30;99.90;;;;;;4953188;28;20485;-61
2022/01/19 14:04:24;;;;;;;11.02;7.35;;;11.40;99.90;;;;;;4954891;29;20090;-61
2022/01/19 14:06:50;;;;;;;13.35;10.93;;;11.30;99.90;;;;;;4951229;28;20028;-61
2022/01/19 14:09:17;;;;;;;14.27;9.75;;;11.30;99.90;;;;;;4951188;29;20083;-61
2022/01/19 14:11:45;;;;;;;13.52;10.32;;;11.30;99.90;;;;;;4951177;29;20031;-61
2022/01/19 14:14:14;;;;;;;12.55;7.40;;;11.40;99.90;;;;;;4950839;28;20074;-61
2022/01/19 14:16:46;;;;;;;7.85;6.10;;;11.30;99.90;;;;;;4953946;28;20087;-62
2022/01/19 14:19:22;;;;;;;8.70;6.00;;;11.10;99.90;;;;;;4953151;28;20485;-61
2022/01/19 14:22:06;;;;;;;8.80;5.72;;;11.10;99.90;;;;;;4951042;28;20385;-62
2022/01/19 14:24:41;;;;;;;11.43;6.20;;;11.10;99.90;;;;;;4950624;28;20102;-61